SARI METAR and TAF weather

Enter ICAO airport designator
Station Type Date Time Source
SARI METAR 2020/07/11 20:00 UTC NOAA

SARI 112000Z 02007KT 9999 FEW035 SCT100 27/19 Q1010


Station Type Date Time Source
SARI Decoded METAR 2020/07/11 20:00 UTC NOAA

Iguazu Aerodrome, Argentina (SARI) 25-44S 054-28W 270M
Jul 11, 2020 - 04:00 PM EDT / 2020.07.11 2000 UTC
Wind: from the NNE (020 degrees) at 8 MPH (7 KT):0
Visibility: greater than 7 mile(s):0
Sky conditions: partly cloudy
Temperature: 80 F (27 C)
Dew Point: 66 F (19 C)
Relative Humidity: 61%
Pressure (altimeter): 29.83 in. Hg (1010 hPa)
ob: SARI 112000Z 02007KT 9999 FEW035 SCT100 27/19 Q1010
cycle: 20

Station Type Date Time Source
SARI TAF 2020/07/11 18:30 UTC NOAA

TAF SARI 111700Z 1118/1218 36005KT CAVOK TX28/1119Z TN16/1210Z PROB30 1119/1123 6000 SHRA FEW050CB SCT100

Example: see airport list